createdAt,value
2018-04-02T14:32:12.516Z,5.80
2018-04-02T14:34:39.991Z,6.22
2018-04-02T14:37:07.662Z,5.93
2018-04-02T14:39:35.129Z,5.90
2018-04-02T14:42:02.588Z,5.70
2018-04-02T14:44:30.054Z,5.43
2018-04-02T14:46:57.540Z,6.07
2018-04-02T14:49:25.018Z,5.25
2018-04-02T14:51:52.498Z,5.22
2018-04-02T14:54:19.968Z,5.10
2018-04-02T14:56:48.272Z,4.97
2018-04-02T14:59:15.809Z,4.78
2018-04-02T15:01:43.271Z,4.80
2018-04-02T15:04:10.725Z,4.57
2018-04-02T15:06:38.186Z,4.30
2018-04-02T15:09:05.640Z,3.90
2018-04-02T15:11:33.127Z,3.60
2018-04-02T15:14:00.631Z,4.00
2018-04-02T15:16:28.081Z,4.10
2018-04-02T15:18:55.564Z,3.37
2018-04-02T15:21:23.036Z,3.80
2018-04-02T15:23:50.523Z,3.55
2018-04-02T15:26:17.988Z,2.90
2018-04-02T15:28:45.548Z,3.10
2018-04-02T15:31:13.024Z,2.72
2018-04-02T15:33:40.480Z,3.55
2018-04-02T15:36:07.968Z,3.53
2018-04-02T15:38:35.533Z,3.35
2018-04-02T15:41:02.989Z,3.75
2018-04-02T15:43:30.504Z,4.28
2018-04-02T15:45:58.197Z,4.65
2018-04-02T15:48:25.829Z,3.80
2018-04-02T15:50:53.319Z,4.00
2018-04-02T15:53:20.861Z,3.30
2018-04-02T15:55:48.332Z,3.50
2018-04-02T15:58:15.806Z,3.60
2018-04-02T16:00:43.288Z,3.20
2018-04-02T16:03:10.798Z,5.10
2018-04-02T16:05:38.309Z,4.20
2018-04-02T16:08:05.777Z,3.90
2018-04-02T16:10:33.260Z,15.70
2018-04-02T16:13:00.831Z,3.97
2018-04-02T16:15:28.289Z,4.28
2018-04-02T16:17:55.756Z,4.00
2018-04-02T16:20:23.235Z,4.80
2018-04-02T16:22:50.791Z,26.98
2018-04-02T16:25:18.276Z,4.90
2018-04-02T16:27:45.772Z,3.90
2018-04-02T16:30:13.224Z,4.60
2018-04-02T16:32:40.783Z,4.22
2018-04-02T16:35:08.348Z,4.60
2018-04-02T16:37:35.928Z,5.40
2018-04-02T16:40:03.452Z,5.10
2018-04-02T16:42:30.934Z,5.07
2018-04-02T16:44:58.487Z,5.93
2018-04-02T16:47:26.695Z,8.45
2018-04-02T16:49:54.177Z,5.37
2018-04-02T16:52:21.677Z,6.20
2018-04-02T16:54:49.136Z,6.20
2018-04-02T16:57:16.589Z,7.60
2018-04-02T16:59:44.057Z,9.15
2018-04-02T17:02:11.641Z,6.97
2018-04-02T17:04:39.257Z,9.95
2018-04-02T17:07:07.488Z,12.75
2018-04-02T17:09:35.024Z,10.45
2018-04-02T17:12:03.277Z,9.95
2018-04-02T17:14:30.744Z,9.55
2018-04-02T17:16:58.315Z,15.40
2018-04-02T17:19:25.876Z,11.60
2018-04-02T17:21:53.341Z,19.15
2018-04-02T17:24:20.800Z,12.55
2018-04-02T17:26:48.280Z,7.70
2018-04-02T17:29:15.740Z,9.65
2018-04-02T17:31:43.223Z,8.33
2018-04-02T17:34:10.688Z,8.30
2018-04-02T17:36:38.155Z,8.27
2018-04-02T17:39:05.643Z,27.40
2018-04-02T17:41:33.112Z,12.43
2018-04-02T17:44:00.595Z,10.65
2018-04-02T17:46:28.061Z,19.93
2018-04-02T17:48:55.616Z,14.05
2018-04-02T17:51:23.087Z,10.00
2018-04-02T17:53:50.657Z,7.78
2018-04-02T17:56:18.160Z,9.70
2018-04-02T17:58:46.399Z,8.90
2018-04-02T18:01:13.880Z,10.77
2018-04-02T18:03:41.451Z,10.20
2018-04-02T18:06:08.915Z,8.55
2018-04-02T18:08:36.396Z,8.48
2018-04-02T18:11:03.872Z,9.23
2018-04-02T18:13:31.344Z,14.25
2018-04-02T18:15:58.856Z,10.10
2018-04-02T18:18:26.370Z,8.00
2018-04-02T18:20:53.848Z,8.30
2018-04-02T18:23:21.325Z,9.07
2018-04-02T18:25:48.894Z,8.73
2018-04-02T18:28:16.401Z,10.65
2018-04-02T18:30:43.916Z,8.60
2018-04-02T18:33:11.375Z,8.38
2018-04-02T18:35:38.856Z,9.65
2018-04-02T18:38:06.344Z,8.73
2018-04-02T18:40:33.808Z,11.32
2018-04-02T18:43:01.292Z,9.73
2018-04-02T18:45:28.759Z,12.50
2018-04-02T18:47:56.248Z,28.02
2018-04-02T18:50:24.476Z,12.00
2018-04-02T18:52:51.948Z,12.85
2018-04-02T18:55:19.439Z,12.80
2018-04-02T18:57:47.008Z,10.18
2018-04-02T19:00:14.575Z,9.85
2018-04-02T19:02:42.113Z,12.02
2018-04-02T19:05:09.632Z,10.00
2018-04-02T19:07:37.924Z,11.85
2018-04-02T19:10:05.405Z,11.02
2018-04-02T19:12:32.948Z,11.30
2018-04-02T19:15:00.436Z,10.10
2018-04-02T19:17:27.996Z,9.48
2018-04-02T19:19:55.567Z,10.70
2018-04-02T19:22:23.049Z,10.40
2018-04-02T19:24:50.610Z,12.18
2018-04-02T19:27:18.080Z,11.65
2018-04-02T19:29:45.711Z,11.70
2018-04-02T19:32:13.913Z,11.00
2018-04-02T19:34:41.380Z,10.07
2018-04-02T19:37:08.839Z,10.20
2018-04-02T19:39:36.320Z,10.05
2018-04-02T19:42:03.802Z,10.00
2018-04-02T19:44:31.304Z,9.77
2018-04-02T19:46:59.541Z,9.50
2018-04-02T19:49:27.009Z,8.43
2018-04-02T19:51:54.613Z,8.82
2018-04-02T19:54:22.165Z,8.73
2018-04-02T19:56:50.355Z,8.60
2018-04-02T19:59:17.827Z,8.50
2018-04-02T20:01:45.308Z,8.10
2018-04-02T20:04:12.888Z,8.10
2018-04-02T20:06:40.356Z,8.38
2018-04-02T20:09:07.839Z,8.18
2018-04-02T20:11:35.408Z,7.05
2018-04-02T20:14:02.864Z,7.90
2018-04-02T20:16:30.447Z,7.85
2018-04-02T20:18:57.916Z,8.05
2018-04-02T20:21:25.375Z,8.45
2018-04-02T20:23:52.844Z,7.68
2018-04-02T20:26:20.316Z,7.82
2018-04-02T20:28:47.838Z,7.80
2018-04-02T20:31:15.249Z,7.78
2018-04-02T20:33:42.712Z,7.70
2018-04-02T20:36:10.188Z,8.30
2018-04-02T20:38:37.649Z,8.48
2018-04-02T20:41:05.132Z,7.30
2018-04-02T20:43:32.616Z,7.70
2018-04-02T20:46:00.076Z,7.23
2018-04-02T20:48:27.536Z,7.65
2018-04-02T20:50:55.010Z,7.85
2018-04-02T20:53:22.477Z,8.18
2018-04-02T20:55:50.049Z,8.18
2018-04-02T20:58:17.633Z,9.13
2018-04-02T21:00:45.108Z,8.77
2018-04-02T21:03:12.586Z,8.60
2018-04-02T21:05:40.151Z,10.83
2018-04-02T21:08:07.636Z,10.43
2018-04-02T21:10:35.872Z,10.35
2018-04-02T21:13:03.328Z,10.77
2018-04-02T21:15:30.804Z,10.23
2018-04-02T21:17:58.315Z,13.25
2018-04-02T21:20:26.605Z,12.00
2018-04-02T21:22:54.072Z,11.20
2018-04-02T21:25:21.531Z,10.73
2018-04-02T21:27:49.016Z,11.18
2018-04-02T21:30:16.487Z,11.40
2018-04-02T21:32:44.037Z,11.48
2018-04-02T21:35:11.517Z,12.13
2018-04-02T21:37:38.976Z,13.57
2018-04-02T21:40:06.451Z,13.32
2018-04-02T21:42:33.912Z,12.15
2018-04-02T21:45:01.389Z,13.10
2018-04-02T21:47:28.869Z,12.63
2018-04-02T21:49:56.357Z,12.55
2018-04-02T21:52:24.586Z,11.27
2018-04-02T21:54:52.088Z,11.23
2018-04-02T21:57:19.573Z,11.40
2018-04-02T21:59:47.036Z,10.73
2018-04-02T22:02:14.599Z,10.80
2018-04-02T22:04:42.080Z,9.77
2018-04-02T22:07:09.544Z,9.40
2018-04-02T22:09:37.005Z,8.48
2018-04-02T22:12:04.572Z,9.02
2018-04-02T22:14:32.144Z,9.30
2018-04-02T22:16:59.603Z,8.55
2018-04-02T22:19:27.080Z,8.40
2018-04-02T22:21:54.562Z,8.43
2018-04-02T22:24:22.026Z,8.23
2018-04-02T22:26:49.610Z,7.80
2018-04-02T22:29:17.064Z,7.20
2018-04-02T22:31:44.639Z,6.32
2018-04-02T22:34:12.091Z,5.40
2018-04-02T22:36:39.557Z,4.20
2018-04-02T22:39:07.009Z,5.07
2018-04-02T22:41:34.619Z,4.22
2018-04-02T22:44:02.110Z,4.47
2018-04-02T22:46:29.585Z,4.05
2018-04-02T22:48:57.124Z,4.40
2018-04-02T22:51:24.591Z,4.00
2018-04-02T22:53:52.070Z,3.90
2018-04-02T22:56:20.440Z,4.30
2018-04-02T22:58:47.900Z,3.90
2018-04-02T23:01:15.371Z,4.15
2018-04-02T23:03:42.829Z,4.20
2018-04-02T23:06:10.294Z,3.50
2018-04-02T23:08:37.752Z,3.72
2018-04-02T23:11:05.285Z,3.10
2018-04-02T23:13:32.842Z,3.40
2018-04-02T23:16:00.308Z,3.10
2018-04-02T23:18:27.793Z,2.80
2018-04-02T23:20:55.282Z,3.17
2018-04-02T23:23:23.509Z,3.28
2018-04-02T23:25:51.007Z,2.90
2018-04-02T23:28:18.488Z,3.17
2018-04-02T23:30:46.886Z,3.10
2018-04-02T23:33:14.344Z,2.60
2018-04-02T23:35:41.814Z,2.70
2018-04-02T23:38:09.396Z,2.70
2018-04-02T23:40:37.658Z,2.60
2018-04-02T23:43:05.114Z,2.70
2018-04-02T23:45:32.568Z,2.50
2018-04-02T23:48:00.049Z,2.50
2018-04-02T23:50:28.060Z,2.50
2018-04-02T23:52:55.581Z,2.60
2018-04-02T23:55:23.828Z,2.50
2018-04-02T23:57:51.292Z,2.75
